Dennison, Ohio
Current Conditions -  °F | °C
As of 5:14 AM on Thursday 23 Oct 2014 (Local Time) from KPHD Reporting Station
Haze Haze  
Wind Chill: 43°   Ceiling: 900
Heat Index: 45°   Visibility: 5mi
Dew Point: 43°   Wind: 5mph
Humidity: 93%   Direction: 310°NW
Pressure: 30.19"   Gusts: NA
Location:  40.39°N, 81.33°W
Report Text: KPHD 230914Z AUTO 31004KT 5SM BR BKN009 07/06 A3019 RMK AO2 T00720061
Loading
Personal Weather Stations






























Interactive Weather Map
Tropical Storm Tracking
New forecast layout! Learn more

10-Day Weather Forecast

Advertisements
Track Severe Weather on mobile